Omaha, NE

8:26 AM CDT on August 31, 2015 (GMT -0500)
Millard Municipal | | Change Station
CLOSE
Current Station
Airport
Location: Omaha Millard,
Elevation: 1050 ft
Nearby Weather Stations
Active Advisory: Special Statement

Elev 1050 ft 41.20 °N, 96.11 °W | Updated 31 minutes ago

Drizzle
Drizzle
66 °F
Feels Like 66 °F
N
4
Wind Variable Wind from SE

Today
High -- | Low -- °F
--% Chance of Precip.
Yesterday
High -- | Low -- °F
Precip. -- in
6:49 AM 7:59 PM
Waning Gibbous, 95% visible
Pressure 29.96 in
Visibility 0.2 miles
Clouds Overcast 200 ft
Dew Point 65 °F
Humidity 97%
Rainfall 0.00 in
Snow Depth Not available.
UV 0 out of 12
Pollen 11.10 out of 12
Air Quality Not available.
Flu Activity Not available.
METAR KMLE 311255Z AUTO 14003KT M1/4SM DZ OVC002 19/19 A2996 RMK AO2 T01900185
Pressure 29.96 in
Visibility 0.2 miles
Clouds Overcast 200 ft
Dew Point 65 °F
Humidity 97%
Rainfall 0.00 in
Snow Depth Not available.
UV 0 out of 12
Pollen 11.10 out of 12
Air Quality Not available.
Flu Activity Not available.
METAR KMLE 311255Z AUTO 14003KT M1/4SM DZ OVC002 19/19 A2996 RMK AO2 T01900185

10-Day Weather Forecast

×

Almanac

Astronomy

Aug. 31, 2015 Rise Set
Actual Time
Civil Twilight
Nautical Twilight
Astronomical Twilight
Moon
Length of Visible Light
Length of Day
Tomorrow will be .
, % of the Moon is Illuminated

Today's Extremes

State Highs State Lows

Community

WunderPhotos

Upload Photos

1,851,231 photos uploaded!

WunderBlogs® & News

Nearby

Air Quality

  Air Quality AQ Index Pollutant
Not available.

Snow Depth

Station Depth Elevation

Earthquake Activity

City Distance Mag. Time & Date
Minimum magnitude displayed is 2.5.

Coastal Water Temperatures

Place Temperature

Stations

Nearby Weather Stations

Station Location Temp. Windchill Dew Point Humidity Wind Precip. Elev Updated Type
                   
Special Statement
Statement as of 8:01 AM CDT on August 31, 2015

... Patchy dense fog in eastern Nebraska and western Iowa...

Areas of dense fog will continue through the morning commute in
much of eastern Nebraska and western Iowa. Visibility may reach
near- zero... and may abruptly change in short distances. Motorists
should be alert for rapid changes in visibility. When you
encounter patches of dense fog... slow down... turn on your low beam
headlights... and remain alert.


Mayes

801 am CDT Mon Aug 31 2015

... Patchy dense fog in eastern Nebraska and western Iowa...

Areas of dense fog will continue through the morning commute in
much of eastern Nebraska and western Iowa. Visibility may reach
near- zero... and may abruptly change in short distances. Motorists
should be alert for rapid changes in visibility. When you
encounter patches of dense fog... slow down... turn on your low beam
headlights... and remain alert.


Mayes